Time;durP1;ratioP1;P1;durP2;ratioP2;P2;SDS_P1;SDS_P2;PMS_P1;PMS_P2;Temp;Humidity;BMP_temperature;BMP_pressure;BME280_temperature;BME280_humidity;BME280_pressure;Samples;Min_cycle;Max_cycle;Signal;HPM_P1;HPM_P2
2022/06/06 00:01:06;;;;;;;3.28;1.80;;;;;;;;;;5002562;28;20488;-70
2022/06/06 00:03:39;;;;;;;2.13;1.80;;;;;;;;;;5010949;28;20041;-70
2022/06/06 00:06:14;;;;;;;3.15;1.50;;;;;;;;;;5012851;28;20152;-70
2022/06/06 00:08:44;;;;;;;2.30;1.95;;;;;;;;;;5012817;28;20081;-70
2022/06/06 00:11:18;;;;;;;3.40;1.70;;;;;;;;;;4992234;28;20097;-70
2022/06/06 00:13:53;;;;;;;5.10;1.90;;;;;;;;;;4998356;28;20503;-70
2022/06/06 00:16:29;;;;;;;2.05;1.80;;;;;;;;;;5012433;28;20054;-70
2022/06/06 00:19:05;;;;;;;3.10;2.05;;;;;;;;;;5012229;28;20060;-70
2022/06/06 00:21:35;;;;;;;2.33;1.60;;;;;;;;;;5012256;28;20124;-70
2022/06/06 00:24:08;;;;;;;2.30;1.70;;;;;;;;;;5011689;28;20496;-70
2022/06/06 00:26:47;;;;;;;3.35;2.17;;;;;;;;;;5012444;28;20057;-70
2022/06/06 00:29:19;;;;;;;3.63;1.90;;;;;;;;;;5011958;28;20050;-70
2022/06/06 00:34:55;;;;;;;2.30;1.95;;;;;;;;;;5012229;28;20133;-70
2022/06/06 00:37:32;;;;;;;3.83;2.22;;;;;;;;;;5011676;28;20050;-70
2022/06/06 00:40:30;;;;;;;3.85;2.10;;;;;;;;;;5012420;28;20079;-70
2022/06/06 00:43:15;;;;;;;3.75;2.10;;;;;;;;;;5011860;28;20104;-70
2022/06/06 00:45:50;;;;;;;4.32;1.98;;;;;;;;;;5011740;28;20052;-70
2022/06/06 00:48:39;;;;;;;3.08;2.38;;;;;;;;;;5011580;28;20057;-70
2022/06/06 00:51:20;;;;;;;2.97;2.13;;;;;;;;;;5010201;28;20092;-70
2022/06/06 00:54:01;;;;;;;7.78;2.15;;;;;;;;;;5010787;28;20069;-70
2022/06/06 00:56:44;;;;;;;2.33;2.13;;;;;;;;;;4996372;28;20508;-70
2022/06/06 00:59:20;;;;;;;3.38;2.13;;;;;;;;;;5009759;28;20496;-70
2022/06/06 01:02:00;;;;;;;3.80;2.10;;;;;;;;;;5010360;28;20037;-70
2022/06/06 01:04:43;;;;;;;3.40;2.17;;;;;;;;;;5010179;28;20056;-69
2022/06/06 01:07:39;;;;;;;4.45;2.45;;;;;;;;;;5010687;28;20054;-69
2022/06/06 01:10:18;;;;;;;3.10;2.35;;;;;;;;;;5011850;28;20060;-70
2022/06/06 01:12:47;;;;;;;3.83;2.30;;;;;;;;;;5011525;28;20050;-70
2022/06/06 01:15:41;;;;;;;4.60;2.22;;;;;;;;;;5011598;28;20137;-70
2022/06/06 01:18:19;;;;;;;2.40;1.77;;;;;;;;;;5010534;28;20049;-69
2022/06/06 01:21:11;;;;;;;3.38;2.10;;;;;;;;;;4994978;28;20082;-69
2022/06/06 01:24:13;;;;;;;4.32;2.63;;;;;;;;;;5011445;28;20046;-69
2022/06/06 01:27:28;;;;;;;2.67;2.20;;;;;;;;;;5015111;28;20111;-69
2022/06/06 01:30:04;;;;;;;3.00;2.72;;;;;;;;;;5009676;28;20433;-69
2022/06/06 01:32:37;;;;;;;2.80;2.45;;;;;;;;;;5013927;28;20041;-69
2022/06/06 01:35:10;;;;;;;3.30;2.10;;;;;;;;;;5014477;28;20050;-69
2022/06/06 01:37:41;;;;;;;;;;;;;;;;;;5014306;28;20099;-69
2022/06/06 01:40:16;;;;;;;4.35;2.45;;;;;;;;;;5015077;28;19922;-69
2022/06/06 01:43:08;;;;;;;3.97;2.83;;;;;;;;;;4998261;28;20056;-69
2022/06/06 01:45:55;;;;;;;2.67;2.47;;;;;;;;;;5000528;28;20108;-69
2022/06/06 01:48:29;;;;;;;3.28;2.53;;;;;;;;;;5013966;28;20092;-69
2022/06/06 01:50:56;;;;;;;3.50;2.40;;;;;;;;;;5042945;22;20413;-66
2022/06/06 01:53:24;;;;;;;5.32;2.83;;;;;;;;;;5033539;28;20045;-66
2022/06/06 01:55:52;;;;;;;7.22;3.35;;;;;;;;;;5034648;28;20729;-66
2022/06/06 01:58:24;;;;;;;3.10;2.78;;;;;;;;;;5034629;28;20099;-66
2022/06/06 02:00:51;;;;;;;3.55;2.50;;;;;;;;;;4999705;28;20433;-66
2022/06/06 02:03:18;;;;;;;4.00;2.70;;;;;;;;;;5014710;28;20050;-66
2022/06/06 02:05:45;;;;;;;3.47;2.40;;;;;;;;;;5014748;28;20052;-66
2022/06/06 02:08:11;;;;;;;4.90;2.72;;;;;;;;;;5014559;28;20054;-66
2022/06/06 02:10:39;;;;;;;2.72;2.38;;;;;;;;;;5031963;28;20111;-66
2022/06/06 02:13:05;;;;;;;4.63;3.00;;;;;;;;;;5034459;28;20049;-66
2022/06/06 02:15:32;;;;;;;3.53;2.35;;;;;;;;;;5017692;28;20108;-66
2022/06/06 02:17:59;;;;;;;3.20;2.45;;;;;;;;;;5024243;28;20084;-66
2022/06/06 02:20:27;;;;;;;4.18;2.70;;;;;;;;;;5034173;28;20107;-66
2022/06/06 02:22:54;;;;;;;3.17;2.65;;;;;;;;;;5033855;28;20646;-65
2022/06/06 02:25:21;;;;;;;3.25;2.67;;;;;;;;;;5034345;28;20123;-66
2022/06/06 02:27:48;;;;;;;4.75;2.90;;;;;;;;;;5034050;28;20104;-66
2022/06/06 02:30:18;;;;;;;3.78;2.60;;;;;;;;;;5019700;28;20100;-66
2022/06/06 02:32:45;;;;;;;4.20;2.80;;;;;;;;;;5014063;28;20050;-66
2022/06/06 02:35:13;;;;;;;4.80;3.00;;;;;;;;;;5019052;28;20501;-66
2022/06/06 02:37:41;;;;;;;2.75;2.50;;;;;;;;;;5017210;28;20041;-66
2022/06/06 02:40:09;;;;;;;2.83;2.63;;;;;;;;;;5033904;28;20076;-66
2022/06/06 02:42:37;;;;;;;3.13;2.85;;;;;;;;;;5033500;28;20053;-66
2022/06/06 02:45:05;;;;;;;3.13;2.83;;;;;;;;;;5021185;28;20107;-66
2022/06/06 02:47:33;;;;;;;4.97;2.97;;;;;;;;;;5014474;28;20050;-66
2022/06/06 02:50:00;;;;;;;3.60;2.88;;;;;;;;;;5013642;28;20050;-66
2022/06/06 02:52:26;;;;;;;3.75;3.28;;;;;;;;;;5013685;28;20046;-67
2022/06/06 02:54:53;;;;;;;3.80;2.90;;;;;;;;;;5022129;28;20045;-66
2022/06/06 02:57:19;;;;;;;5.30;3.33;;;;;;;;;;5033323;28;20053;-66
2022/06/06 02:59:47;;;;;;;5.53;3.15;;;;;;;;;;5033483;28;20107;-66
2022/06/06 03:02:14;;;;;;;4.88;2.90;;;;;;;;;;5015665;28;20049;-67
2022/06/06 03:04:40;;;;;;;6.82;3.47;;;;;;;;;;5018819;28;20042;-66
2022/06/06 03:07:17;;;;;;;4.72;4.10;;;;;;;;;;5013616;28;20054;-66
2022/06/06 03:09:50;;;;;;;4.15;3.30;;;;;;;;;;5012315;28;20417;-66
2022/06/06 03:12:26;;;;;;;6.90;3.95;;;;;;;;;;5013322;28;20057;-66
2022/06/06 03:15:02;;;;;;;5.90;4.07;;;;;;;;;;4996471;28;20076;-66
2022/06/06 03:20:48;;;;;;;7.32;3.63;;;;;;;;;;5004874;28;20057;-66
2022/06/06 03:23:33;;;;;;;6.55;4.20;;;;;;;;;;5013123;28;20050;-67
2022/06/06 03:26:11;;;;;;;6.60;4.18;;;;;;;;;;5012269;28;20049;-66
2022/06/06 03:28:59;;;;;;;6.68;4.40;;;;;;;;;;5012156;28;20095;-66
2022/06/06 03:31:46;;;;;;;7.95;3.95;;;;;;;;;;5011808;28;20054;-66
2022/06/06 03:34:20;;;;;;;4.75;3.92;;;;;;;;;;5020567;28;20057;-66
2022/06/06 03:37:10;;;;;;;6.85;4.10;;;;;;;;;;5018898;28;20488;-66
2022/06/06 03:39:43;;;;;;;7.07;4.10;;;;;;;;;;4998733;28;20054;-66
2022/06/06 03:42:18;;;;;;;4.60;4.18;;;;;;;;;;5012920;28;20058;-67
2022/06/06 03:45:02;;;;;;;5.22;4.05;;;;;;;;;;4996410;28;20049;-67
2022/06/06 03:48:08;;;;;;;5.22;4.20;;;;;;;;;;5012179;28;20064;-67
2022/06/06 03:50:53;;;;;;;4.63;4.20;;;;;;;;;;4996394;28;20049;-66
2022/06/06 03:53:28;;;;;;;4.72;4.00;;;;;;;;;;5012865;28;20102;-67
2022/06/06 03:56:00;;;;;;;5.78;3.85;;;;;;;;;;5028110;28;20053;-66
2022/06/06 03:58:29;;;;;;;6.50;4.75;;;;;;;;;;5030761;28;20111;-66
2022/06/06 04:00:56;;;;;;;6.55;4.45;;;;;;;;;;5011448;28;20567;-66
2022/06/06 04:03:24;;;;;;;4.50;4.10;;;;;;;;;;5025747;28;20053;-66
2022/06/06 04:05:51;;;;;;;5.28;4.18;;;;;;;;;;5009232;28;20060;-66
2022/06/06 04:08:18;;;;;;;5.25;4.28;;;;;;;;;;5031127;28;20500;-66
2022/06/06 04:10:50;;;;;;;5.50;3.85;;;;;;;;;;5032023;28;20053;-66
2022/06/06 04:13:36;;;;;;;5.28;4.13;;;;;;;;;;5032094;28;20053;-67
2022/06/06 04:16:16;;;;;;;4.43;4.03;;;;;;;;;;5012363;28;20054;-67
2022/06/06 04:18:51;;;;;;;5.90;4.40;;;;;;;;;;5028968;28;20060;-67
2022/06/06 04:21:31;;;;;;;5.75;4.63;;;;;;;;;;5031764;28;20057;-67
2022/06/06 04:24:13;;;;;;;4.50;3.63;;;;;;;;;;5030646;28;20061;-67
2022/06/06 04:26:45;;;;;;;4.93;4.32;;;;;;;;;;5030941;28;20053;-67
2022/06/06 04:29:18;;;;;;;4.40;4.00;;;;;;;;;;5025523;28;20096;-67
2022/06/06 04:31:52;;;;;;;4.55;4.15;;;;;;;;;;5010922;28;20695;-66
2022/06/06 04:34:25;;;;;;;5.82;4.60;;;;;;;;;;5020088;28;20049;-66
2022/06/06 04:37:15;;;;;;;6.63;4.15;;;;;;;;;;5015020;28;20058;-67
2022/06/06 04:39:45;;;;;;;5.95;3.83;;;;;;;;;;5010873;28;20062;-67
2022/06/06 04:42:32;;;;;;;4.93;3.75;;;;;;;;;;5011861;28;20131;-67
2022/06/06 04:45:15;;;;;;;5.88;3.92;;;;;;;;;;5011036;28;20112;-66
2022/06/06 04:47:45;;;;;;;5.57;4.50;;;;;;;;;;5010889;28;20519;-67
2022/06/06 04:50:18;;;;;;;6.60;4.00;;;;;;;;;;5011758;28;20056;-67
2022/06/06 04:52:54;;;;;;;9.73;4.68;;;;;;;;;;5012155;28;20046;-67
2022/06/06 04:55:21;;;;;;;5.55;3.95;;;;;;;;;;4996523;28;20060;-67
2022/06/06 04:57:50;;;;;;;4.85;3.50;;;;;;;;;;4995798;28;20057;-67
2022/06/06 05:00:17;;;;;;;5.78;3.70;;;;;;;;;;5002672;28;20041;-67
2022/06/06 05:02:43;;;;;;;7.20;4.53;;;;;;;;;;5036275;28;20049;-67
2022/06/06 05:05:10;;;;;;;3.75;3.45;;;;;;;;;;5035498;28;20557;-67
2022/06/06 05:07:37;;;;;;;6.60;3.92;;;;;;;;;;5033771;28;20049;-67
2022/06/06 05:10:30;;;;;;;3.80;3.33;;;;;;;;;;5035396;28;20049;-67
2022/06/06 05:13:33;;;;;;;4.18;3.45;;;;;;;;;;5034237;28;20052;-67
2022/06/06 05:16:28;;;;;;;3.75;3.35;;;;;;;;;;5019145;28;20053;-67
2022/06/06 05:19:16;;;;;;;5.05;4.32;;;;;;;;;;5034635;28;20060;-68
2022/06/06 05:21:58;;;;;;;7.32;4.13;;;;;;;;;;5035010;28;20049;-69
2022/06/06 05:24:50;;;;;;;3.85;2.97;;;;;;;;;;5035217;28;20133;-69
2022/06/06 05:27:20;;;;;;;4.33;3.10;;;;;;;;;;5029904;28;20057;-69
2022/06/06 05:30:09;;;;;;;5.05;3.00;;;;;;;;;;5033359;28;20291;-68
2022/06/06 05:32:40;;;;;;;3.33;2.55;;;;;;;;;;5031666;28;20045;-68
2022/06/06 05:35:33;;;;;;;5.10;2.83;;;;;;;;;;5032291;28;20053;-68
2022/06/06 05:38:18;;;;;;;4.68;2.60;;;;;;;;;;5033257;28;20060;-68
2022/06/06 05:41:23;;;;;;;3.75;2.50;;;;;;;;;;5016372;28;20058;-67
2022/06/06 05:44:09;;;;;;;3.58;2.47;;;;;;;;;;5019279;28;20053;-69
2022/06/06 05:47:25;;;;;;;5.68;3.20;;;;;;;;;;5031814;28;20053;-68
2022/06/06 05:50:13;;;;;;;3.35;2.67;;;;;;;;;;5029684;28;20056;-68
2022/06/06 05:52:44;;;;;;;3.92;2.60;;;;;;;;;;5014775;28;20050;-68
2022/06/06 05:55:32;;;;;;;4.97;2.63;;;;;;;;;;5019029;28;20057;-69
2022/06/06 05:58:29;;;;;;;3.60;2.88;;;;;;;;;;4996976;28;20064;-68
2022/06/06 06:01:23;;;;;;;3.85;2.70;;;;;;;;;;5011643;28;20460;-68
2022/06/06 06:03:53;;;;;;;4.50;2.55;;;;;;;;;;5012620;28;20133;-68
2022/06/06 06:06:41;;;;;;;3.08;2.60;;;;;;;;;;5022920;28;20480;-67
2022/06/06 06:09:29;;;;;;;3.95;2.75;;;;;;;;;;5032018;28;20064;-68
2022/06/06 06:12:11;;;;;;;2.63;2.38;;;;;;;;;;5025565;28;20501;-68
2022/06/06 06:14:59;;;;;;;2.80;2.50;;;;;;;;;;5014155;28;20061;-68
2022/06/06 06:17:28;;;;;;;3.00;2.65;;;;;;;;;;5019374;28;20050;-67
2022/06/06 06:20:01;;;;;;;2.97;2.53;;;;;;;;;;5026443;28;20050;-69
2022/06/06 06:22:30;;;;;;;3.40;2.70;;;;;;;;;;5011818;28;20132;-69
2022/06/06 06:24:57;;;;;;;5.05;2.25;;;;;;;;;;5026391;28;20451;-69
2022/06/06 06:27:23;;;;;;;4.35;2.50;;;;;;;;;;5014549;28;20095;-68
2022/06/06 06:29:50;;;;;;;4.00;2.28;;;;;;;;;;5014596;28;20056;-66
2022/06/06 06:32:19;;;;;;;2.60;2.40;;;;;;;;;;5012821;28;20487;-68
2022/06/06 06:35:12;;;;;;;2.60;2.40;;;;;;;;;;5011119;28;20278;-68
2022/06/06 06:37:55;;;;;;;5.03;2.83;;;;;;;;;;5010363;28;20050;-67
2022/06/06 06:41:06;;;;;;;5.38;2.33;;;;;;;;;;5007219;28;20521;-67
2022/06/06 06:44:04;;;;;;;2.72;2.45;;;;;;;;;;5012120;28;20460;-67
2022/06/06 06:46:38;;;;;;;3.58;2.50;;;;;;;;;;5025283;28;20054;-68
2022/06/06 06:49:18;;;;;;;4.18;2.38;;;;;;;;;;5018581;28;20135;-68
2022/06/06 06:52:08;;;;;;;2.88;2.67;;;;;;;;;;5031594;28;20053;-68
2022/06/06 06:55:09;;;;;;;2.30;2.10;;;;;;;;;;5030647;28;20046;-68
2022/06/06 06:57:50;;;;;;;4.45;2.80;;;;;;;;;;5011840;28;20450;-67
2022/06/06 07:00:22;;;;;;;3.00;2.70;;;;;;;;;;5028812;28;20045;-67
2022/06/06 07:09:02;;;;;;;2.72;2.45;;;;;;;;;;5011530;28;20144;-68
2022/06/06 07:11:39;;;;;;;3.30;2.53;;;;;;;;;;5013659;28;20046;-68
2022/06/06 07:14:26;;;;;;;4.30;2.67;;;;;;;;;;5010921;28;20137;-68
2022/06/06 07:16:58;;;;;;;3.95;2.65;;;;;;;;;;5011502;28;20054;-68
2022/06/06 07:19:35;;;;;;;3.97;2.80;;;;;;;;;;5011374;28;20124;-68
2022/06/06 07:22:11;;;;;;;3.92;2.33;;;;;;;;;;4994584;28;20296;-68
2022/06/06 07:24:51;;;;;;;3.28;2.08;;;;;;;;;;5010795;28;20057;-69
2022/06/06 07:27:25;;;;;;;3.78;2.63;;;;;;;;;;5010954;28;20053;-68
2022/06/06 07:30:13;;;;;;;2.65;2.42;;;;;;;;;;5011235;28;20058;-69
2022/06/06 07:33:02;;;;;;;2.28;2.08;;;;;;;;;;5011250;28;20050;-68
2022/06/06 07:35:34;;;;;;;2.53;2.33;;;;;;;;;;5011297;28;20050;-70
2022/06/06 07:38:13;;;;;;;4.32;2.63;;;;;;;;;;5024546;28;20104;-69
2022/06/06 07:41:09;;;;;;;4.45;2.90;;;;;;;;;;5014381;28;20041;-72
2022/06/06 07:43:40;;;;;;;2.92;2.28;;;;;;;;;;5029511;28;20046;-73
2022/06/06 07:46:25;;;;;;;3.73;3.00;;;;;;;;;;5030820;28;20239;-68
2022/06/06 07:49:08;;;;;;;5.05;2.75;;;;;;;;;;5029349;28;20053;-68
2022/06/06 07:51:45;;;;;;;3.45;2.50;;;;;;;;;;5017276;28;20049;-68
2022/06/06 07:54:25;;;;;;;3.70;2.75;;;;;;;;;;5009317;28;20077;-68
2022/06/06 07:57:31;;;;;;;3.38;1.95;;;;;;;;;;5010843;28;20053;-69
2022/06/06 08:00:07;;;;;;;3.65;2.63;;;;;;;;;;5011916;28;20054;-68
2022/06/06 08:02:59;;;;;;;6.25;2.30;;;;;;;;;;5030864;28;20496;-69
2022/06/06 08:05:32;;;;;;;2.47;2.15;;;;;;;;;;5032296;28;20460;-69
2022/06/06 08:08:09;;;;;;;2.50;2.20;;;;;;;;;;5031259;28;20428;-68
2022/06/06 08:10:42;;;;;;;3.95;2.30;;;;;;;;;;5015924;28;20413;-68
2022/06/06 08:13:27;;;;;;;5.05;2.55;;;;;;;;;;5012675;28;20540;-68
2022/06/06 08:16:15;;;;;;;2.55;2.35;;;;;;;;;;5005892;28;20463;-63
2022/06/06 08:19:13;;;;;;;3.33;2.42;;;;;;;;;;5023597;28;20493;-67
2022/06/06 08:21:46;;;;;;;3.97;2.67;;;;;;;;;;5019558;28;20116;-71
2022/06/06 08:24:27;;;;;;;4.90;2.45;;;;;;;;;;4999982;28;20045;-72
2022/06/06 08:27:16;;;;;;;2.90;2.38;;;;;;;;;;5017908;28;20053;-72
2022/06/06 08:29:44;;;;;;;3.72;2.78;;;;;;;;;;5020293;28;20517;-72
2022/06/06 08:32:17;;;;;;;3.45;2.38;;;;;;;;;;5019213;28;20072;-75
2022/06/06 08:34:43;;;;;;;4.80;2.70;;;;;;;;;;5018835;28;20057;-70
2022/06/06 08:37:42;;;;;;;2.90;2.60;;;;;;;;;;5020868;28;20045;-71
2022/06/06 08:40:43;;;;;;;4.35;2.42;;;;;;;;;;5024860;28;20159;-70
2022/06/06 08:43:44;;;;;;;5.93;2.47;;;;;;;;;;5005639;28;20580;-75
2022/06/06 08:46:21;;;;;;;2.90;2.05;;;;;;;;;;5021458;28;20084;-67
2022/06/06 08:49:08;;;;;;;2.80;2.20;;;;;;;;;;5033092;28;20556;-72
2022/06/06 08:51:41;;;;;;;4.30;2.38;;;;;;;;;;5018828;28;20049;-67
2022/06/06 08:54:48;;;;;;;3.58;2.03;;;;;;;;;;5020273;28;20049;-71
2022/06/06 08:57:53;;;;;;;2.08;1.98;;;;;;;;;;5026771;28;20057;-71
2022/06/06 09:00:50;;;;;;;3.40;2.00;;;;;;;;;;5033819;28;20049;-70
2022/06/06 09:03:38;;;;;;;1.63;1.52;;;;;;;;;;5019545;28;20508;-68
2022/06/06 09:06:43;;;;;;;1.75;1.63;;;;;;;;;;5004232;28;20476;-69
2022/06/06 09:09:22;;;;;;;2.47;1.92;;;;;;;;;;5019894;28;20053;-73
2022/06/06 09:11:52;;;;;;;2.20;2.00;;;;;;;;;;5022441;28;20111;-70
2022/06/06 09:14:18;;;;;;;2.20;1.83;;;;;;;;;;5016890;28;20054;-70
2022/06/06 09:17:04;;;;;;;5.45;1.90;;;;;;;;;;5016170;28;20046;-68
2022/06/06 09:19:54;;;;;;;1.67;1.55;;;;;;;;;;5022976;28;20053;-69
2022/06/06 09:22:46;;;;;;;4.13;2.20;;;;;;;;;;5030610;28;20353;-70
2022/06/06 09:25:26;;;;;;;7.32;1.95;;;;;;;;;;5021019;28;20050;-76
2022/06/06 09:27:58;;;;;;;1.95;1.75;;;;;;;;;;5034797;28;20109;-71
2022/06/06 09:30:33;;;;;;;;;;;;;;;;;;5027267;28;20104;-68
2022/06/06 09:33:19;;;;;;;1.40;1.27;;;;;;;;;;5019890;28;19932;-70
2022/06/06 09:36:15;;;;;;;5.78;1.95;;;;;;;;;;5016999;28;20072;-73
2022/06/06 09:39:00;;;;;;;1.30;1.20;;;;;;;;;;5016037;28;20054;-71
2022/06/06 09:41:48;;;;;;;2.97;1.40;;;;;;;;;;5019806;28;20057;-73
2022/06/06 09:44:39;;;;;;;2.08;1.30;;;;;;;;;;5018229;28;20081;-71
2022/06/06 09:47:40;;;;;;;1.40;1.20;;;;;;;;;;5023187;28;20112;-71
2022/06/06 09:50:13;;;;;;;1.42;1.20;;;;;;;;;;5005561;28;20054;-73
2022/06/06 09:53:13;;;;;;;1.77;1.00;;;;;;;;;;5025155;28;20575;-72
2022/06/06 09:59:05;;;;;;;2.58;1.52;;;;;;;;;;5022629;28;20492;-72
2022/06/06 10:02:16;;;;;;;1.80;1.50;;;;;;;;;;5022749;28;20049;-72
2022/06/06 10:05:12;;;;;;;1.98;1.20;;;;;;;;;;5008006;28;20508;-67
2022/06/06 10:07:39;;;;;;;4.80;1.52;;;;;;;;;;5018856;28;20073;-71
2022/06/06 10:10:31;;;;;;;1.98;1.38;;;;;;;;;;5020523;28;20057;-71
2022/06/06 10:13:29;;;;;;;3.80;1.35;;;;;;;;;;5027984;28;20049;-71
2022/06/06 10:16:22;;;;;;;2.83;1.50;;;;;;;;;;5023856;28;20085;-71
2022/06/06 10:19:01;;;;;;;2.70;1.50;;;;;;;;;;5018102;28;20046;-70
2022/06/06 10:22:05;;;;;;;1.88;1.17;;;;;;;;;;5019674;28;20555;-69
2022/06/06 10:25:08;;;;;;;1.70;1.17;;;;;;;;;;5021879;28;20131;-71
2022/06/06 10:28:00;;;;;;;1.57;1.43;;;;;;;;;;5021216;28;20099;-73
2022/06/06 10:30:32;;;;;;;1.60;1.30;;;;;;;;;;5021089;28;20045;-73
2022/06/06 10:33:32;;;;;;;2.05;1.33;;;;;;;;;;5020195;28;20050;-72
2022/06/06 10:36:24;;;;;;;2.65;1.20;;;;;;;;;;5019997;28;20045;-74
2022/06/06 10:39:07;;;;;;;2.45;1.23;;;;;;;;;;5021283;28;20077;-76
2022/06/06 10:41:55;;;;;;;3.10;1.50;;;;;;;;;;5035090;28;20049;-73
2022/06/06 10:44:47;;;;;;;3.22;1.50;;;;;;;;;;5024075;28;20133;-75
2022/06/06 10:47:34;;;;;;;3.03;1.15;;;;;;;;;;5019127;28;20124;-69
2022/06/06 10:50:22;;;;;;;1.42;1.10;;;;;;;;;;5021103;28;20120;-74
2022/06/06 10:53:15;;;;;;;1.73;1.10;;;;;;;;;;5021776;28;20493;-69
2022/06/06 10:56:06;;;;;;;4.10;1.10;;;;;;;;;;5021366;28;20050;-72
2022/06/06 10:59:10;;;;;;;2.05;1.08;;;;;;;;;;5014782;28;20145;-72
2022/06/06 11:02:01;;;;;;;4.15;1.17;;;;;;;;;;5031034;28;20671;-72
2022/06/06 11:05:05;;;;;;;1.83;1.23;;;;;;;;;;5027390;28;20077;-72
2022/06/06 11:07:51;;;;;;;2.65;0.90;;;;;;;;;;5018681;28;20065;-73
2022/06/06 11:10:21;;;;;;;1.15;1.00;;;;;;;;;;5035266;28;20519;-71
2022/06/06 11:13:13;;;;;;;1.75;1.20;;;;;;;;;;5024140;28;20112;-72
2022/06/06 11:16:05;;;;;;;1.65;1.40;;;;;;;;;;5023256;28;20497;-72
2022/06/06 11:18:47;;;;;;;1.38;0.90;;;;;;;;;;5033264;28;20480;-70
2022/06/06 11:21:14;;;;;;;1.00;0.95;;;;;;;;;;5033103;28;20556;-68
2022/06/06 11:23:47;;;;;;;1.67;0.90;;;;;;;;;;5019720;28;20072;-67
2022/06/06 11:26:14;;;;;;;;;;;;;;;;;;5003303;28;20099;-63
2022/06/06 11:28:59;;;;;;;1.20;1.10;;;;;;;;;;5018387;28;20427;-66
2022/06/06 11:31:50;;;;;;;1.85;1.27;;;;;;;;;;5021186;28;20107;-70
2022/06/06 11:34:57;;;;;;;1.00;0.90;;;;;;;;;;5023490;28;20099;-68
2022/06/06 11:37:48;;;;;;;1.50;1.20;;;;;;;;;;5020458;28;20054;-69
2022/06/06 11:40:35;;;;;;;1.60;0.95;;;;;;;;;;5026844;28;20057;-71
2022/06/06 11:43:12;;;;;;;1.60;1.20;;;;;;;;;;5026082;28;20056;-70
2022/06/06 11:46:23;;;;;;;1.35;1.10;;;;;;;;;;5020495;28;20083;-68
2022/06/06 11:48:53;;;;;;;1.30;1.20;;;;;;;;;;5020593;28;20435;-69
2022/06/06 11:51:35;;;;;;;2.72;1.30;;;;;;;;;;5016318;28;20052;-69
2022/06/06 11:54:17;;;;;;;;;;;;;;;;;;5019899;28;20054;-69
2022/06/06 11:57:25;;;;;;;1.65;1.10;;;;;;;;;;5021172;28;20064;-69
2022/06/06 12:00:28;;;;;;;2.30;1.02;;;;;;;;;;5014373;28;20050;-70
2022/06/06 12:02:58;;;;;;;1.40;1.10;;;;;;;;;;5017376;28;20050;-70
2022/06/06 12:05:40;;;;;;;2.47;1.40;;;;;;;;;;5017916;28;20046;-68
2022/06/06 12:08:38;;;;;;;1.80;1.02;;;;;;;;;;5020510;28;20052;-69
2022/06/06 12:11:52;;;;;;;2.45;1.35;;;;;;;;;;5023672;28;20486;-69
2022/06/06 12:14:35;;;;;;;4.50;1.98;;;;;;;;;;5009162;28;20050;-69
2022/06/06 12:17:33;;;;;;;2.47;1.30;;;;;;;;;;5028491;28;20065;-69
2022/06/06 12:20:30;;;;;;;1.83;1.20;;;;;;;;;;5014000;28;20098;-68
2022/06/06 12:23:18;;;;;;;3.05;1.20;;;;;;;;;;5016269;28;20046;-69
2022/06/06 12:25:58;;;;;;;2.05;1.30;;;;;;;;;;5035772;28;20100;-69
2022/06/06 12:28:34;;;;;;;2.75;1.15;;;;;;;;;;5017636;28;20049;-68
2022/06/06 12:31:31;;;;;;;1.58;1.27;;;;;;;;;;5018567;28;20099;-69
2022/06/06 12:34:19;;;;;;;1.67;1.05;;;;;;;;;;5022500;28;20056;-68
2022/06/06 12:36:49;;;;;;;1.60;1.42;;;;;;;;;;5033153;28;20071;-68
2022/06/06 12:39:41;;;;;;;2.22;1.20;;;;;;;;;;5017218;28;20472;-68
2022/06/06 12:42:14;;;;;;;1.42;1.10;;;;;;;;;;5020044;28;20058;-67
2022/06/06 12:45:35;;;;;;;1.60;1.33;;;;;;;;;;5020188;28;20046;-66
2022/06/06 12:48:13;;;;;;;1.75;1.10;;;;;;;;;;4988482;28;20046;-66
2022/06/06 12:50:55;;;;;;;2.33;1.40;;;;;;;;;;5018602;28;20050;-66
2022/06/06 12:53:40;;;;;;;2.13;1.38;;;;;;;;;;5019269;28;20124;-67
2022/06/06 12:56:37;;;;;;;3.10;1.15;;;;;;;;;;5032953;28;20583;-67
2022/06/06 12:59:41;;;;;;;8.30;1.13;;;;;;;;;;5031112;28;20059;-67
2022/06/06 13:02:39;;;;;;;2.83;1.25;;;;;;;;;;5035746;28;20390;-63
2022/06/06 13:05:38;;;;;;;2.45;1.35;;;;;;;;;;5006717;28;20053;-65
2022/06/06 13:08:17;;;;;;;1.75;1.08;;;;;;;;;;5018605;28;20056;-63
2022/06/06 13:11:34;;;;;;;1.05;1.05;;;;;;;;;;5018694;28;20054;-67
2022/06/06 13:14:05;;;;;;;2.35;1.58;;;;;;;;;;5024969;28;20599;-70
2022/06/06 13:17:06;;;;;;;4.20;1.53;;;;;;;;;;5018117;28;20042;-70
2022/06/06 13:19:53;;;;;;;1.50;1.33;;;;;;;;;;5033149;28;20060;-69
2022/06/06 13:23:01;;;;;;;2.50;1.40;;;;;;;;;;5037746;28;20139;-69
2022/06/06 13:25:37;;;;;;;3.25;1.30;;;;;;;;;;5022614;28;20044;-69
2022/06/06 13:28:28;;;;;;;1.50;1.40;;;;;;;;;;5020594;28;20103;-69
2022/06/06 13:31:10;;;;;;;2.05;1.33;;;;;;;;;;5034170;28;20053;-71
2022/06/06 13:33:37;;;;;;;2.20;1.23;;;;;;;;;;5020575;28;20046;-69
2022/06/06 13:36:24;;;;;;;2.55;1.63;;;;;;;;;;5022193;28;20292;-70
2022/06/06 13:39:02;;;;;;;1.58;1.42;;;;;;;;;;5020370;28;20104;-69
2022/06/06 13:41:48;;;;;;;1.38;1.20;;;;;;;;;;5020991;28;20095;-70
2022/06/06 13:44:58;;;;;;;1.73;1.13;;;;;;;;;;5035387;28;20062;-70
2022/06/06 13:47:24;;;;;;;1.88;1.10;;;;;;;;;;5021613;28;20049;-71
2022/06/06 13:50:29;;;;;;;1.90;1.15;;;;;;;;;;5020093;28;20057;-69
2022/06/06 13:52:58;;;;;;;1.60;0.90;;;;;;;;;;5019322;28;20042;-69
2022/06/06 13:55:28;;;;;;;2.38;1.20;;;;;;;;;;5022019;28;20550;-70
2022/06/06 13:58:40;;;;;;;3.90;1.83;;;;;;;;;;5020248;28;20050;-73
2022/06/06 14:01:16;;;;;;;2.13;1.17;;;;;;;;;;5027415;28;20045;-74
2022/06/06 14:03:57;;;;;;;2.25;1.20;;;;;;;;;;5007192;28;20057;-74
2022/06/06 14:06:45;;;;;;;1.42;0.90;;;;;;;;;;5041934;28;20049;-68
2022/06/06 14:09:15;;;;;;;2.05;1.38;;;;;;;;;;5034863;28;20468;-73
2022/06/06 14:11:51;;;;;;;2.35;1.73;;;;;;;;;;5027559;28;20496;-73
2022/06/06 14:14:19;;;;;;;3.05;1.40;;;;;;;;;;5018954;28;20046;-70
2022/06/06 14:17:07;;;;;;;2.92;1.20;;;;;;;;;;5020067;28;20046;-66
2022/06/06 14:19:46;;;;;;;2.00;1.27;;;;;;;;;;5035883;28;20056;-73
2022/06/06 14:22:31;;;;;;;2.67;1.27;;;;;;;;;;5021021;28;20176;-72
2022/06/06 14:25:01;;;;;;;4.95;1.40;;;;;;;;;;5019760;28;20050;-70
2022/06/06 14:27:29;;;;;;;1.70;1.45;;;;;;;;;;5024411;28;20404;-71
2022/06/06 14:30:01;;;;;;;2.72;1.23;;;;;;;;;;4989444;28;20449;-67
2022/06/06 14:32:30;;;;;;;2.35;1.67;;;;;;;;;;5020554;28;20049;-68
2022/06/06 14:34:59;;;;;;;3.65;1.80;;;;;;;;;;5023587;28;20460;-68
2022/06/06 14:37:33;;;;;;;2.47;1.65;;;;;;;;;;5017766;28;20488;-73
2022/06/06 14:40:07;;;;;;;2.33;1.60;;;;;;;;;;5023068;28;20050;-71
2022/06/06 14:42:35;;;;;;;2.60;1.60;;;;;;;;;;5022351;28;20054;-68
2022/06/06 14:45:08;;;;;;;4.35;2.72;;;;;;;;;;5034150;28;20061;-67
2022/06/06 14:47:47;;;;;;;2.42;1.70;;;;;;;;;;5019963;28;20052;-71
2022/06/06 14:53:45;;;;;;;2.13;1.40;;;;;;;;;;5023840;28;20573;-71
2022/06/06 14:56:18;;;;;;;3.45;1.55;;;;;;;;;;5029509;28;20109;-67
2022/06/06 14:58:56;;;;;;;1.90;1.30;;;;;;;;;;5022895;28;20050;-69
2022/06/06 15:01:24;;;;;;;1.33;1.20;;;;;;;;;;5028886;28;20053;-70
2022/06/06 15:03:54;;;;;;;2.78;1.30;;;;;;;;;;5024727;28;20500;-69
2022/06/06 15:06:27;;;;;;;2.92;1.65;;;;;;;;;;5020104;28;20057;-68
2022/06/06 15:09:39;;;;;;;1.50;1.25;;;;;;;;;;5023172;28;20045;-67
2022/06/06 15:12:10;;;;;;;1.25;1.15;;;;;;;;;;4967024;28;20403;-72
2022/06/06 15:14:36;;;;;;;2.55;1.60;;;;;;;;;;4973299;28;20513;-72
2022/06/06 15:17:05;;;;;;;3.67;1.50;;;;;;;;;;5005998;28;20053;-73
2022/06/06 15:19:52;;;;;;;1.98;1.30;;;;;;;;;;5018743;28;20084;-75
2022/06/06 15:22:41;;;;;;;4.63;1.63;;;;;;;;;;5025616;28;20041;-77
2022/06/06 15:25:19;;;;;;;3.35;1.30;;;;;;;;;;5018233;28;20050;-74
2022/06/06 15:28:07;;;;;;;1.40;1.08;;;;;;;;;;5018924;28;20441;-70
2022/06/06 15:30:41;;;;;;;2.38;1.02;;;;;;;;;;5020408;28;20050;-71
2022/06/06 15:33:29;;;;;;;3.05;1.10;;;;;;;;;;5035048;28;20112;-71
2022/06/06 15:36:14;;;;;;;1.73;1.60;;;;;;;;;;5018744;28;20103;-71
2022/06/06 15:38:51;;;;;;;1.55;1.23;;;;;;;;;;5019789;28;20052;-71
2022/06/06 15:41:35;;;;;;;4.75;1.63;;;;;;;;;;5016623;28;20460;-71
2022/06/06 15:44:11;;;;;;;2.35;1.23;;;;;;;;;;5021463;28;20460;-69
2022/06/06 15:46:53;;;;;;;3.45;1.40;;;;;;;;;;5018666;28;20042;-70
2022/06/06 15:49:32;;;;;;;1.65;1.35;;;;;;;;;;5022018;28;20077;-69
2022/06/06 15:52:31;;;;;;;4.47;1.30;;;;;;;;;;5035419;28;20104;-68
2022/06/06 15:55:15;;;;;;;2.60;1.55;;;;;;;;;;5018502;28;20041;-68
2022/06/06 15:57:51;;;;;;;4.75;1.65;;;;;;;;;;5035718;28;20063;-69
2022/06/06 16:00:23;;;;;;;1.50;1.15;;;;;;;;;;5020834;28;20076;-69
2022/06/06 16:03:18;;;;;;;;;;;;;;;;;;5002245;28;20525;-68
2022/06/06 16:05:47;;;;;;;2.50;1.30;;;;;;;;;;5018135;28;20311;-68
2022/06/06 16:08:23;;;;;;;2.28;1.30;;;;;;;;;;5015548;28;20049;-69
2022/06/06 16:10:59;;;;;;;3.85;1.58;;;;;;;;;;5018524;28;20535;-70
2022/06/06 16:13:57;;;;;;;3.45;1.40;;;;;;;;;;5020337;28;20062;-69
2022/06/06 16:16:47;;;;;;;1.27;1.17;;;;;;;;;;5034007;28;20133;-69
2022/06/06 16:19:23;;;;;;;1.92;1.30;;;;;;;;;;5031623;28;20053;-69
2022/06/06 16:21:59;;;;;;;2.80;1.50;;;;;;;;;;5017381;28;20476;-69
2022/06/06 16:24:38;;;;;;;2.22;1.50;;;;;;;;;;5020696;28;20052;-70
2022/06/06 16:27:22;;;;;;;4.55;1.55;;;;;;;;;;5019980;28;20046;-69
2022/06/06 16:30:15;;;;;;;2.08;1.52;;;;;;;;;;5032692;28;20057;-69